Accueil
METAR-TAF:

METAR-TAF

Aéroports :

Aéroport de Limoges-Bellegarde

Limoges, France

latitude: 45-52N, longitude: 001-11E, altitude: 396 m

Observation

Le bulletin a été fait il y a 25 minutes, à 12:00 UTC
Vent 8 kt de sud
Température 14°C
Humidité 36%
Pression 1027 hPa
Visibilité 10 km ou plus
pas de nuages en-dessous de 1500 mètres et pas de cumulonimbus.

METAR: LFBL 161200Z AUTO 17008KT CAVOK 14/M01 Q1027 NOSIG

Heure: 13:25 (12:25 UTC)

Prévision

Le bulletin a été fait il y a 1 heure et 25 minutes, à 11:00 UTC
Prévision valable du 16 à 12 UTC au 17 à 12 UTC
Vent 8 kt de sud-est
Visibilité 10 km ou plus
pas de nuages en-dessous de 1500 mètres et pas de cumulonimbus.
Temporairement
du 16 à 17 UTC au 16 à 21 UTC
Vent 3 kt de direction variable

TAF: LFBL 161100Z 1612/1712 14008KT CAVOK TEMPO 1617/1621 VRB03KT

Observations et prévisions météorologiques de plus de 4000 aéroports (messages METAR et TAF).

Les stations disponibles sont représentées par des disques jaunes et rouges sur la carte.

Passer la souris dessus pour voir le nom de la station.

Cliquer dessus pour voir les observations et prévisions météorologiques.

Pour changer de carte: cliquez sur les boutons verts avec une croix noire pour zoomer, sur le bouton vert avec un tiret pour effectuer un zoom arrière, ou sur les flèches vertes pour les cartes adjacentes.


METAR-TAF: